Time;durP1;ratioP1;P1;durP2;ratioP2;P2;SDS_P1;SDS_P2;PMS_P1;PMS_P2;Temp;Humidity;BMP_temperature;BMP_pressure;BME280_temperature;BME280_humidity;BME280_pressure;Samples;Min_cycle;Max_cycle;Signal;HPM_P1;HPM_P2
2022/08/10 00:00:41;;;;;;;11.52;9.57;;;;;;;;;;5052158;28;20021;-78
2022/08/10 00:03:08;;;;;;;12.07;10.25;;;;;;;;;;5062327;28;20111;-79
2022/08/10 00:05:35;;;;;;;15.40;10.32;;;;;;;;;;5060225;28;20115;-79
2022/08/10 00:08:02;;;;;;;14.20;11.20;;;;;;;;;;5064030;28;20028;-76
2022/08/10 00:10:29;;;;;;;11.95;10.75;;;;;;;;;;5055717;28;20370;-79
2022/08/10 00:12:55;;;;;;;12.90;10.02;;;;;;;;;;5052740;28;20035;-80
2022/08/10 00:15:22;;;;;;;13.73;10.32;;;;;;;;;;5073047;28;20020;-72
2022/08/10 00:17:48;;;;;;;11.27;10.07;;;;;;;;;;5053731;28;20390;-79
2022/08/10 00:20:14;;;;;;;12.30;10.32;;;;;;;;;;5056234;28;20029;-71
2022/08/10 00:22:41;;;;;;;11.40;10.23;;;;;;;;;;5070978;28;20041;-70
2022/08/10 00:25:08;;;;;;;13.27;9.98;;;;;;;;;;5072880;28;20085;-80
2022/08/10 00:27:34;;;;;;;14.80;10.05;;;;;;;;;;5057030;28;20024;-69
2022/08/10 00:30:00;;;;;;;12.60;10.80;;;;;;;;;;5066327;28;20124;-73
2022/08/10 00:32:26;;;;;;;11.38;10.18;;;;;;;;;;5064371;28;20273;-72
2022/08/10 00:34:52;;;;;;;15.02;10.40;;;;;;;;;;5073501;28;20119;-76
2022/08/10 00:37:18;;;;;;;13.48;9.38;;;;;;;;;;5059482;28;20079;-70
2022/08/10 00:39:45;;;;;;;12.23;10.43;;;;;;;;;;5060125;28;20025;-69
2022/08/10 00:42:12;;;;;;;11.98;10.35;;;;;;;;;;5066760;28;20092;-70
2022/08/10 00:44:39;;;;;;;14.27;10.27;;;;;;;;;;5066633;28;20113;-79
2022/08/10 00:47:06;;;;;;;12.77;10.95;;;;;;;;;;5050764;28;20437;-79
2022/08/10 00:49:32;;;;;;;12.32;9.98;;;;;;;;;;5052114;28;20364;-70
2022/08/10 00:51:59;;;;;;;15.52;10.50;;;;;;;;;;5068608;28;20385;-69
2022/08/10 00:54:25;;;;;;;13.18;10.55;;;;;;;;;;5074053;28;20108;-77
2022/08/10 00:56:51;;;;;;;13.38;10.23;;;;;;;;;;5062070;28;20029;-76
2022/08/10 00:59:20;;;;;;;12.30;10.48;;;;;;;;;;5077473;28;20024;-80
2022/08/10 01:01:52;;;;;;;14.85;10.40;;;;;;;;;;5070853;28;20500;-80
2022/08/10 01:04:20;;;;;;;11.57;9.80;;;;;;;;;;5073482;28;20013;-77
2022/08/10 01:06:55;;;;;;;13.38;10.25;;;;;;;;;;5064070;28;20037;-79
2022/08/10 01:09:40;;;;;;;11.38;9.85;;;;;;;;;;5056125;28;20179;-79
2022/08/10 01:12:06;;;;;;;11.13;9.93;;;;;;;;;;5055803;28;20037;-71
2022/08/10 01:14:35;;;;;;;11.43;9.95;;;;;;;;;;5067853;28;20028;-71
2022/08/10 01:17:24;;;;;;;13.40;10.65;;;;;;;;;;5061537;28;20025;-70
2022/08/10 01:20:22;;;;;;;10.77;9.45;;;;;;;;;;5063330;28;20048;-77
2022/08/10 01:22:54;;;;;;;11.07;9.25;;;;;;;;;;4980065;28;20058;-71
2022/08/10 01:25:36;;;;;;;14.20;9.30;;;;;;;;;;4993019;28;20034;-70
2022/08/10 01:28:04;;;;;;;11.57;9.60;;;;;;;;;;4994062;28;20050;-70
2022/08/10 01:30:32;;;;;;;13.23;10.18;;;;;;;;;;4997156;28;20116;-69
2022/08/10 01:33:02;;;;;;;11.07;9.23;;;;;;;;;;4994160;28;20066;-72
2022/08/10 01:35:33;;;;;;;10.13;8.90;;;;;;;;;;4995668;28;20391;-80
2022/08/10 01:38:02;;;;;;;10.18;9.18;;;;;;;;;;4997291;28;20026;-77
2022/08/10 01:40:31;;;;;;;11.00;9.40;;;;;;;;;;4993874;28;20025;-70
2022/08/10 01:42:58;;;;;;;15.23;9.70;;;;;;;;;;4991628;28;20085;-79
2022/08/10 01:45:44;;;;;;;13.02;9.50;;;;;;;;;;4996793;28;20041;-79
2022/08/10 01:48:29;;;;;;;12.50;8.82;;;;;;;;;;4990126;28;20030;-78
2022/08/10 01:50:58;;;;;;;10.90;9.55;;;;;;;;;;4977487;28;20042;-73
2022/08/10 01:53:38;;;;;;;10.23;9.23;;;;;;;;;;4990803;28;20038;-78
2022/08/10 01:56:10;;;;;;;12.65;9.60;;;;;;;;;;5023159;28;20519;-78
2022/08/10 01:58:37;;;;;;;11.82;9.32;;;;;;;;;;5036219;28;20152;-74
2022/08/10 02:06:47;;;;;;;12.25;9.15;;;;;;;;;;5260921;22;20041;-70
2022/08/10 02:09:15;;;;;;;10.23;9.13;;;;;;;;;;5075070;28;20036;-79
2022/08/10 02:11:42;;;;;;;12.30;9.60;;;;;;;;;;5055539;28;20433;-79
2022/08/10 02:14:10;;;;;;;12.77;9.80;;;;;;;;;;5074842;28;20029;-80
2022/08/10 02:16:37;;;;;;;14.18;9.23;;;;;;;;;;5074607;28;20496;-80
2022/08/10 02:19:05;;;;;;;12.45;9.85;;;;;;;;;;5074777;28;20021;-78
2022/08/10 02:21:31;;;;;;;11.27;9.40;;;;;;;;;;5074679;28;20021;-80
2022/08/10 02:23:58;;;;;;;10.70;9.25;;;;;;;;;;5074496;28;20421;-80
2022/08/10 02:26:25;;;;;;;12.30;9.45;;;;;;;;;;5073409;28;20021;-79
2022/08/10 02:28:52;;;;;;;14.80;9.48;;;;;;;;;;5087101;28;20362;-82
2022/08/10 02:31:20;;;;;;;12.77;9.32;;;;;;;;;;5071014;28;20440;-81
2022/08/10 02:33:47;;;;;;;13.68;9.55;;;;;;;;;;5074029;28;20466;-81
2022/08/10 02:36:14;;;;;;;11.60;9.00;;;;;;;;;;5073092;28;20370;-81
2022/08/10 02:38:42;;;;;;;13.65;9.13;;;;;;;;;;5074263;28;20103;-82
2022/08/10 02:41:11;;;;;;;11.95;8.07;;;;;;;;;;5074369;28;20107;-75
2022/08/10 02:43:57;;;;;;;13.27;9.07;;;;;;;;;;5075541;28;20033;-78
2022/08/10 02:46:28;;;;;;;15.20;9.70;;;;;;;;;;5072658;28;20528;-79
2022/08/10 02:48:58;;;;;;;13.57;8.70;;;;;;;;;;5072988;28;20067;-71
2022/08/10 02:51:29;;;;;;;11.57;7.78;;;;;;;;;;5072225;28;20033;-78
2022/08/10 02:53:59;;;;;;;8.63;6.55;;;;;;;;;;5073975;28;20024;-78
2022/08/10 02:56:28;;;;;;;8.70;6.32;;;;;;;;;;5071868;28;20478;-79
2022/08/10 02:59:00;;;;;;;12.50;5.05;;;;;;;;;;5073254;28;20363;-75
2022/08/10 03:01:34;;;;;;;8.30;5.05;;;;;;;;;;5073653;28;20043;-79
2022/08/10 03:04:03;;;;;;;11.07;4.88;;;;;;;;;;5073656;28;20048;-79
2022/08/10 03:06:41;;;;;;;7.45;5.10;;;;;;;;;;5071799;28;20095;-80
2022/08/10 03:09:10;;;;;;;6.10;4.30;;;;;;;;;;5051700;28;20041;-79
2022/08/10 03:11:36;;;;;;;5.97;4.00;;;;;;;;;;5053948;28;20087;-78
2022/08/10 03:14:04;;;;;;;6.07;3.63;;;;;;;;;;5053301;28;20135;-76
2022/08/10 03:16:30;;;;;;;4.97;3.70;;;;;;;;;;5053565;28;20024;-79
2022/08/10 03:18:59;;;;;;;6.05;3.22;;;;;;;;;;5050788;28;20032;-80
2022/08/10 03:21:26;;;;;;;8.35;3.83;;;;;;;;;;5052711;28;20493;-79
2022/08/10 03:23:52;;;;;;;7.97;3.60;;;;;;;;;;5053519;28;20021;-78
2022/08/10 03:26:18;;;;;;;6.60;3.25;;;;;;;;;;5053143;28;20028;-71
2022/08/10 03:28:45;;;;;;;6.47;3.45;;;;;;;;;;5052151;28;20071;-79
2022/08/10 03:31:11;;;;;;;6.75;3.70;;;;;;;;;;5053043;28;20033;-79
2022/08/10 03:33:39;;;;;;;7.68;3.33;;;;;;;;;;5053283;28;20044;-79
2022/08/10 03:36:05;;;;;;;5.75;3.30;;;;;;;;;;5051710;28;20025;-81
2022/08/10 03:38:32;;;;;;;6.15;3.42;;;;;;;;;;5052241;28;20036;-78
2022/08/10 03:41:01;;;;;;;5.95;3.42;;;;;;;;;;5051689;28;20037;-78
2022/08/10 03:43:28;;;;;;;7.45;3.30;;;;;;;;;;5053256;28;20023;-79
2022/08/10 03:45:58;;;;;;;3.67;3.03;;;;;;;;;;5053096;28;20032;-81
2022/08/10 03:48:25;;;;;;;5.50;3.15;;;;;;;;;;5052658;28;20041;-79
2022/08/10 03:50:52;;;;;;;5.47;3.40;;;;;;;;;;5052088;28;20052;-81
2022/08/10 03:53:18;;;;;;;6.60;3.33;;;;;;;;;;5051115;28;20039;-77
2022/08/10 03:55:45;;;;;;;8.40;3.33;;;;;;;;;;5052031;28;20433;-80
2022/08/10 03:58:11;;;;;;;7.10;3.42;;;;;;;;;;5053548;28;20036;-77
2022/08/10 04:00:37;;;;;;;7.55;3.00;;;;;;;;;;5051766;28;20032;-79
2022/08/10 04:03:04;;;;;;;7.00;3.35;;;;;;;;;;5048451;28;20070;-80
2022/08/10 04:05:31;;;;;;;7.43;3.63;;;;;;;;;;5068292;28;20150;-79
2022/08/10 04:07:58;;;;;;;7.15;3.38;;;;;;;;;;5064455;28;20060;-80
2022/08/10 04:10:25;;;;;;;7.18;3.20;;;;;;;;;;5053759;28;20033;-80
2022/08/10 04:12:51;;;;;;;5.53;3.40;;;;;;;;;;5057811;28;20032;-80
2022/08/10 04:15:17;;;;;;;5.22;3.40;;;;;;;;;;5059979;28;20028;-79
2022/08/10 04:17:43;;;;;;;6.40;3.28;;;;;;;;;;5054496;28;20402;-80
2022/08/10 04:20:14;;;;;;;6.22;3.45;;;;;;;;;;5066296;28;20107;-80
2022/08/10 04:22:42;;;;;;;4.28;3.28;;;;;;;;;;5054017;28;20636;-77
2022/08/10 04:25:10;;;;;;;11.38;3.83;;;;;;;;;;5052335;28;20027;-79
2022/08/10 04:27:36;;;;;;;9.70;3.47;;;;;;;;;;5050911;28;20017;-78
2022/08/10 04:30:02;;;;;;;5.28;3.17;;;;;;;;;;5052084;28;20013;-79
2022/08/10 04:32:30;;;;;;;6.82;3.33;;;;;;;;;;5049798;28;20068;-80
2022/08/10 04:34:57;;;;;;;7.75;3.22;;;;;;;;;;5049179;28;20052;-78
2022/08/10 04:37:23;;;;;;;13.23;3.50;;;;;;;;;;5057829;28;20545;-80
2022/08/10 04:39:50;;;;;;;6.43;2.92;;;;;;;;;;5072610;28;20031;-76
2022/08/10 04:42:16;;;;;;;8.10;3.53;;;;;;;;;;5065541;28;20437;-80
2022/08/10 04:44:42;;;;;;;9.38;3.95;;;;;;;;;;5049888;28;20040;-77
2022/08/10 04:47:08;;;;;;;5.45;3.10;;;;;;;;;;5051720;28;20109;-76
2022/08/10 04:49:34;;;;;;;7.68;3.33;;;;;;;;;;5049622;28;20339;-79
2022/08/10 04:52:01;;;;;;;5.72;3.33;;;;;;;;;;5051968;28;20457;-78
2022/08/10 04:54:27;;;;;;;5.70;3.20;;;;;;;;;;5050643;28;20021;-70
2022/08/10 04:56:53;;;;;;;5.40;3.30;;;;;;;;;;5050858;28;20116;-73
2022/08/10 04:59:20;;;;;;;7.95;3.20;;;;;;;;;;5051833;28;20013;-78
2022/08/10 05:01:46;;;;;;;7.97;3.42;;;;;;;;;;5051483;28;20486;-78
2022/08/10 05:04:12;;;;;;;6.07;4.00;;;;;;;;;;5057391;28;20092;-79
2022/08/10 05:06:38;;;;;;;11.93;3.92;;;;;;;;;;5051332;28;20064;-74
2022/08/10 05:09:04;;;;;;;8.30;3.97;;;;;;;;;;5045143;28;20049;-77
2022/08/10 05:11:30;;;;;;;7.70;3.88;;;;;;;;;;5048880;28;20029;-72
2022/08/10 05:13:56;;;;;;;10.18;4.70;;;;;;;;;;5053127;28;20064;-82
2022/08/10 05:16:22;;;;;;;7.18;4.07;;;;;;;;;;5048281;28;20032;-79
2022/08/10 05:18:49;;;;;;;7.35;4.00;;;;;;;;;;5044632;28;20024;-78
2022/08/10 05:21:15;;;;;;;13.10;3.97;;;;;;;;;;5048338;28;20487;-70
2022/08/10 05:23:41;;;;;;;19.40;4.63;;;;;;;;;;5049808;28;20108;-72
2022/08/10 05:26:07;;;;;;;7.82;3.58;;;;;;;;;;5049728;28;20021;-71
2022/08/10 05:28:33;;;;;;;6.57;3.67;;;;;;;;;;5051833;28;20009;-72
2022/08/10 05:30:59;;;;;;;14.40;4.30;;;;;;;;;;5051195;28;20123;-72
2022/08/10 05:33:25;;;;;;;11.15;3.85;;;;;;;;;;5050765;28;20478;-70
2022/08/10 05:35:51;;;;;;;11.68;3.70;;;;;;;;;;5048126;28;20036;-71
2022/08/10 05:38:18;;;;;;;7.65;3.97;;;;;;;;;;5046059;28;20029;-75
2022/08/10 05:40:44;;;;;;;7.80;3.13;;;;;;;;;;5050937;28;20478;-77
2022/08/10 05:43:11;;;;;;;10.40;3.40;;;;;;;;;;5050038;28;20105;-73
2022/08/10 05:45:37;;;;;;;5.80;3.33;;;;;;;;;;5053714;28;20108;-76
2022/08/10 05:48:03;;;;;;;5.20;3.58;;;;;;;;;;5053152;28;20075;-74
2022/08/10 05:50:33;;;;;;;7.38;3.58;;;;;;;;;;5053925;28;20363;-76
2022/08/10 05:52:59;;;;;;;6.47;3.40;;;;;;;;;;5053626;28;20470;-71
2022/08/10 05:55:28;;;;;;;6.45;3.67;;;;;;;;;;5052162;28;20390;-74
2022/08/10 05:57:54;;;;;;;6.78;3.30;;;;;;;;;;5051771;28;20025;-76
2022/08/10 06:00:23;;;;;;;10.68;4.05;;;;;;;;;;5050790;28;20533;-74
2022/08/10 06:02:50;;;;;;;8.10;3.15;;;;;;;;;;5053404;28;20033;-79
2022/08/10 06:05:18;;;;;;;5.45;3.10;;;;;;;;;;5054927;28;20467;-67
2022/08/10 06:10:48;;;;;;;7.57;3.60;;;;;;;;;;5200293;23;20128;-68
2022/08/10 06:16:00;;;;;;;4.85;3.15;;;;;;;;;;5075443;28;20031;-73
2022/08/10 06:18:26;;;;;;;5.45;3.33;;;;;;;;;;5069053;28;20498;-77
2022/08/10 06:20:52;;;;;;;8.00;3.22;;;;;;;;;;5075898;28;20104;-80
2022/08/10 06:23:19;;;;;;;6.57;3.47;;;;;;;;;;5073975;28;20028;-86
2022/08/10 06:25:45;;;;;;;9.10;3.30;;;;;;;;;;5073477;28;20024;-85
2022/08/10 06:28:13;;;;;;;5.45;3.03;;;;;;;;;;5075432;28;20025;-89
2022/08/10 06:30:40;;;;;;;9.52;3.60;;;;;;;;;;5072807;28;20036;-85
2022/08/10 06:33:08;;;;;;;8.98;3.60;;;;;;;;;;5075000;28;20033;-81
2022/08/10 06:35:35;;;;;;;5.85;3.30;;;;;;;;;;5075232;28;20016;-90
2022/08/10 06:38:02;;;;;;;7.88;3.50;;;;;;;;;;5074506;28;20020;-79
2022/08/10 06:40:31;;;;;;;5.20;3.58;;;;;;;;;;5074854;28;20027;-78
2022/08/10 06:42:58;;;;;;;11.95;3.70;;;;;;;;;;5074723;28;20024;-69
2022/08/10 06:45:28;;;;;;;7.20;3.47;;;;;;;;;;5074622;28;20052;-79
2022/08/10 06:48:24;;;;;;;11.85;3.50;;;;;;;;;;5072485;28;20020;-69
2022/08/10 06:50:53;;;;;;;5.68;3.70;;;;;;;;;;5003796;28;20056;-86
2022/08/10 06:53:20;;;;;;;4.85;3.70;;;;;;;;;;4976897;28;20037;-86
2022/08/10 06:55:55;;;;;;;9.35;4.15;;;;;;;;;;4993434;28;20027;-91
2022/08/10 06:58:23;;;;;;;9.40;4.35;;;;;;;;;;4992186;28;20058;-91
2022/08/10 07:00:51;;;;;;;7.30;4.13;;;;;;;;;;4987954;28;20053;-68
2022/08/10 07:03:18;;;;;;;7.60;4.10;;;;;;;;;;4992984;28;20026;-91
2022/08/10 07:05:46;;;;;;;6.05;3.80;;;;;;;;;;4993097;28;20034;-83
2022/08/10 07:08:14;;;;;;;6.50;3.50;;;;;;;;;;4992878;28;20039;-87
2022/08/10 07:10:41;;;;;;;6.93;3.88;;;;;;;;;;4990044;28;20532;-89
2022/08/10 07:13:07;;;;;;;7.20;3.97;;;;;;;;;;4974912;28;20023;-89
2022/08/10 07:15:34;;;;;;;12.55;4.35;;;;;;;;;;4983684;28;20037;-92
2022/08/10 07:18:01;;;;;;;7.65;4.00;;;;;;;;;;4973347;28;20062;-78
2022/08/10 07:20:27;;;;;;;7.50;3.90;;;;;;;;;;4991022;28;20038;-83
2022/08/10 07:22:54;;;;;;;8.35;3.85;;;;;;;;;;4982168;28;20035;-88
2022/08/10 07:25:23;;;;;;;11.60;5.28;;;;;;;;;;4989002;28;20042;-85
2022/08/10 07:27:50;;;;;;;11.20;4.32;;;;;;;;;;5051379;28;20037;-69
2022/08/10 07:30:16;;;;;;;6.57;3.50;;;;;;;;;;5054290;28;20371;-79
2022/08/10 07:32:43;;;;;;;7.78;4.07;;;;;;;;;;5066900;28;20504;-84
2022/08/10 07:35:11;;;;;;;8.43;4.70;;;;;;;;;;5067256;28;20495;-72
2022/08/10 07:37:39;;;;;;;11.85;4.57;;;;;;;;;;5073214;28;20028;-75
2022/08/10 07:40:06;;;;;;;7.03;4.20;;;;;;;;;;5055341;28;20040;-77
2022/08/10 07:42:33;;;;;;;16.75;4.85;;;;;;;;;;5072881;28;20020;-80
2022/08/10 07:44:59;;;;;;;10.45;3.70;;;;;;;;;;5035154;28;20032;-77
2022/08/10 07:47:31;;;;;;;9.80;3.42;;;;;;;;;;5050324;28;20036;-69
2022/08/10 07:50:01;;;;;;;8.80;3.67;;;;;;;;;;5041230;28;20033;-86
2022/08/10 07:52:28;;;;;;;9.23;3.75;;;;;;;;;;5031509;28;20107;-68
2022/08/10 07:54:55;;;;;;;6.85;3.53;;;;;;;;;;5021313;28;20119;-72
2022/08/10 07:57:27;;;;;;;9.93;3.83;;;;;;;;;;5055132;28;20074;-67
2022/08/10 07:59:58;;;;;;;9.30;3.40;;;;;;;;;;5073358;28;20025;-83
2022/08/10 08:02:26;;;;;;;10.15;3.80;;;;;;;;;;5046692;28;20120;-75
2022/08/10 08:04:54;;;;;;;9.30;3.95;;;;;;;;;;5046220;28;20025;-72
2022/08/10 08:07:20;;;;;;;11.98;3.70;;;;;;;;;;5049278;28;20100;-68
2022/08/10 08:09:48;;;;;;;10.73;4.07;;;;;;;;;;5058845;28;20562;-76
2022/08/10 08:12:14;;;;;;;6.13;4.32;;;;;;;;;;5061220;28;20520;-79
2022/08/10 08:14:42;;;;;;;8.10;4.32;;;;;;;;;;5059811;28;20029;-72
2022/08/10 08:17:09;;;;;;;7.00;3.90;;;;;;;;;;5066595;28;20435;-86
2022/08/10 08:19:35;;;;;;;12.73;4.75;;;;;;;;;;5053305;28;20023;-90
2022/08/10 08:22:02;;;;;;;8.70;4.40;;;;;;;;;;5053142;28;20043;-89
2022/08/10 08:24:29;;;;;;;7.35;3.83;;;;;;;;;;5056869;28;20016;-85
2022/08/10 08:26:55;;;;;;;12.32;3.50;;;;;;;;;;5069714;28;20055;-87
2022/08/10 08:29:21;;;;;;;11.77;4.22;;;;;;;;;;5056352;28;20025;-76
2022/08/10 08:31:48;;;;;;;9.63;4.07;;;;;;;;;;5082298;28;20127;-71
2022/08/10 08:34:16;;;;;;;6.40;3.85;;;;;;;;;;5066827;28;20044;-74
2022/08/10 08:36:42;;;;;;;7.13;3.97;;;;;;;;;;5067645;28;20104;-90
2022/08/10 08:39:10;;;;;;;10.63;4.30;;;;;;;;;;5071285;28;20029;-84
2022/08/10 08:41:51;;;;;;;11.32;4.20;;;;;;;;;;5068057;28;20139;-75
2022/08/10 08:44:20;;;;;;;6.50;3.95;;;;;;;;;;5054515;28;20070;-77
2022/08/10 08:47:09;;;;;;;7.13;3.67;;;;;;;;;;5071308;28;20082;-74
2022/08/10 08:50:07;;;;;;;9.80;3.88;;;;;;;;;;4971081;28;20102;-71
2022/08/10 08:52:39;;;;;;;13.85;4.03;;;;;;;;;;4913670;29;20051;-72
2022/08/10 08:55:05;;;;;;;6.80;3.90;;;;;;;;;;4911887;29;20033;-71
2022/08/10 08:57:50;;;;;;;6.43;3.70;;;;;;;;;;4911441;29;20046;-70
2022/08/10 09:00:25;;;;;;;10.65;3.60;;;;;;;;;;4908376;29;20103;-74
2022/08/10 09:03:13;;;;;;;4.30;3.10;;;;;;;;;;4912637;29;20051;-69
2022/08/10 09:05:50;;;;;;;5.63;3.67;;;;;;;;;;4914239;29;20939;-68
2022/08/10 09:08:26;;;;;;;9.88;3.45;;;;;;;;;;4915192;29;20040;-71
2022/08/10 09:10:52;;;;;;;4.32;3.22;;;;;;;;;;4910176;29;20490;-86
2022/08/10 09:13:36;;;;;;;7.45;3.30;;;;;;;;;;4909912;29;20410;-82
2022/08/10 09:16:10;;;;;;;6.97;3.08;;;;;;;;;;4915123;29;20037;-80
2022/08/10 09:18:42;;;;;;;10.57;3.38;;;;;;;;;;4898468;29;20047;-77
2022/08/10 09:21:21;;;;;;;6.85;3.17;;;;;;;;;;4916915;29;20032;-79
2022/08/10 09:23:52;;;;;;;10.57;2.92;;;;;;;;;;4911930;29;20032;-76
2022/08/10 09:26:20;;;;;;;6.75;3.45;;;;;;;;;;4943328;28;20065;-81
2022/08/10 09:28:46;;;;;;;5.28;3.08;;;;;;;;;;5046602;28;20037;-81
2022/08/10 09:31:12;;;;;;;10.45;3.60;;;;;;;;;;5070930;28;20029;-79
2022/08/10 09:33:57;;;;;;;6.53;2.90;;;;;;;;;;5049071;28;20048;-81
2022/08/10 09:36:28;;;;;;;5.97;3.00;;;;;;;;;;5056981;28;20104;-75
2022/08/10 09:39:13;;;;;;;10.20;3.20;;;;;;;;;;5068873;28;20017;-82
2022/08/10 09:41:50;;;;;;;6.90;3.00;;;;;;;;;;5069756;28;20025;-78
2022/08/10 09:44:20;;;;;;;10.25;3.10;;;;;;;;;;5065185;28;20044;-80
2022/08/10 09:46:46;;;;;;;5.78;3.15;;;;;;;;;;5051258;28;20035;-79
2022/08/10 09:49:12;;;;;;;5.65;2.88;;;;;;;;;;5066697;28;20016;-82
2022/08/10 09:51:38;;;;;;;7.88;3.25;;;;;;;;;;5064371;28;20040;-77
2022/08/10 09:54:13;;;;;;;18.65;3.72;;;;;;;;;;5071058;28;20642;-79
2022/08/10 09:56:58;;;;;;;14.85;3.72;;;;;;;;;;5072910;28;20035;-77
2022/08/10 09:59:34;;;;;;;9.52;4.85;;;;;;;;;;5052974;28;20029;-81
2022/08/10 10:02:07;;;;;;;10.18;4.95;;;;;;;;;;5069914;28;20086;-77
2022/08/10 10:04:40;;;;;;;5.30;3.05;;;;;;;;;;5072551;28;20075;-83
2022/08/10 10:07:08;;;;;;;9.02;3.03;;;;;;;;;;5068902;28;20024;-87
2022/08/10 10:09:38;;;;;;;4.50;2.90;;;;;;;;;;5068729;28;20044;-87
2022/08/10 10:12:24;;;;;;;13.93;3.17;;;;;;;;;;5050223;28;20157;-82
2022/08/10 10:15:21;;;;;;;9.15;3.03;;;;;;;;;;5052523;28;20465;-82
2022/08/10 10:18:00;;;;;;;6.32;3.00;;;;;;;;;;5068226;28;20048;-78
2022/08/10 10:20:45;;;;;;;10.60;3.53;;;;;;;;;;5069099;28;20020;-85
2022/08/10 10:23:34;;;;;;;6.63;2.70;;;;;;;;;;5066578;28;20051;-87
2022/08/10 10:26:10;;;;;;;4.20;2.63;;;;;;;;;;5068333;28;20169;-85
2022/08/10 10:28:55;;;;;;;4.07;2.42;;;;;;;;;;5071442;28;20505;-81
2022/08/10 10:31:25;;;;;;;7.43;2.97;;;;;;;;;;5053164;28;20072;-83
2022/08/10 10:34:12;;;;;;;3.83;2.75;;;;;;;;;;5055523;28;20032;-80
2022/08/10 10:36:40;;;;;;;4.47;2.53;;;;;;;;;;5069044;28;20079;-84
2022/08/10 10:39:07;;;;;;;4.10;2.50;;;;;;;;;;5067113;28;20124;-81
2022/08/10 10:41:42;;;;;;;12.93;2.80;;;;;;;;;;5056702;28;20052;-79
2022/08/10 10:44:19;;;;;;;16.75;3.55;;;;;;;;;;5073224;28;20021;-76
2022/08/10 10:46:45;;;;;;;9.15;2.50;;;;;;;;;;5071384;28;20557;-82
2022/08/10 10:49:18;;;;;;;3.47;2.58;;;;;;;;;;5071995;28;20040;-85
2022/08/10 10:51:51;;;;;;;6.82;3.05;;;;;;;;;;5069802;28;20077;-76
2022/08/10 10:54:39;;;;;;;10.65;2.90;;;;;;;;;;5076706;28;20021;-79
2022/08/10 10:57:05;;;;;;;4.65;2.50;;;;;;;;;;5073864;28;20047;-80
2022/08/10 10:59:51;;;;;;;4.00;2.15;;;;;;;;;;5059447;28;20033;-79
2022/08/10 11:02:17;;;;;;;4.88;2.30;;;;;;;;;;5066854;28;20469;-78
2022/08/10 11:04:49;;;;;;;9.18;2.92;;;;;;;;;;5061543;28;20505;-83
2022/08/10 11:07:15;;;;;;;3.50;2.43;;;;;;;;;;5065806;28;20033;-84
2022/08/10 11:09:45;;;;;;;5.95;2.40;;;;;;;;;;5069624;28;20277;-76
2022/08/10 11:12:33;;;;;;;5.93;2.97;;;;;;;;;;5054676;28;20056;-83
2022/08/10 11:15:06;;;;;;;5.18;2.90;;;;;;;;;;5079149;28;20512;-76
2022/08/10 11:17:35;;;;;;;6.68;2.70;;;;;;;;;;5072785;28;20064;-78
2022/08/10 11:20:14;;;;;;;5.60;2.35;;;;;;;;;;5068866;28;20091;-89
2022/08/10 11:22:56;;;;;;;8.93;2.80;;;;;;;;;;5069720;28;20686;-84
2022/08/10 11:25:29;;;;;;;5.38;2.60;;;;;;;;;;5067678;28;20382;-77
2022/08/10 11:27:55;;;;;;;;;;;;;;;;;;5054100;28;20021;-74
2022/08/10 11:30:24;;;;;;;8.18;2.90;;;;;;;;;;5069947;28;19908;-78
2022/08/10 11:32:50;;;;;;;8.70;2.63;;;;;;;;;;5058959;28;20090;-76
2022/08/10 11:35:22;;;;;;;7.22;2.83;;;;;;;;;;5062419;28;20025;-74
2022/08/10 11:37:55;;;;;;;5.22;2.50;;;;;;;;;;5052833;28;20028;-76
2022/08/10 11:40:21;;;;;;;;;;;;;;;;;;5059004;28;20021;-77
2022/08/10 11:43:08;;;;;;;5.10;2.55;;;;;;;;;;5053794;28;19950;-77
2022/08/10 11:45:35;;;;;;;4.72;2.40;;;;;;;;;;5078105;28;20028;-78
2022/08/10 11:48:20;;;;;;;3.38;2.25;;;;;;;;;;5073644;28;20039;-75
2022/08/10 11:50:51;;;;;;;4.47;2.45;;;;;;;;;;5073214;28;20082;-77
2022/08/10 11:53:17;;;;;;;8.57;2.90;;;;;;;;;;5075693;28;20106;-83
2022/08/10 11:55:44;;;;;;;5.75;2.17;;;;;;;;;;5070538;28;20021;-84
2022/08/10 12:01:04;;;;;;;4.55;2.20;;;;;;;;;;5072675;28;20036;-72
2022/08/10 12:03:31;;;;;;;2.63;2.08;;;;;;;;;;5070595;28;20477;-83
2022/08/10 12:05:59;;;;;;;10.55;2.55;;;;;;;;;;5073565;28;20067;-87
2022/08/10 12:08:30;;;;;;;4.97;2.05;;;;;;;;;;5065232;28;20025;-77
2022/08/10 12:10:57;;;;;;;3.67;2.08;;;;;;;;;;5059536;28;20040;-82
2022/08/10 12:13:29;;;;;;;2.63;2.08;;;;;;;;;;5066556;28;20024;-87
2022/08/10 12:16:11;;;;;;;5.03;2.20;;;;;;;;;;5063539;28;20470;-81
2022/08/10 12:18:47;;;;;;;4.10;2.20;;;;;;;;;;5069606;28;20486;-82
2022/08/10 12:21:26;;;;;;;3.85;2.22;;;;;;;;;;5069964;28;20040;-83
2022/08/10 12:24:01;;;;;;;10.27;2.75;;;;;;;;;;5070039;28;20075;-81
2022/08/10 12:26:39;;;;;;;6.95;2.80;;;;;;;;;;5052449;28;20028;-84
2022/08/10 12:29:14;;;;;;;3.92;2.63;;;;;;;;;;5045600;28;20023;-81
2022/08/10 12:31:40;;;;;;;9.25;2.50;;;;;;;;;;5066525;28;20040;-82
2022/08/10 12:34:09;;;;;;;15.13;2.63;;;;;;;;;;5068960;28;20027;-83
2022/08/10 12:36:42;;;;;;;2.17;1.98;;;;;;;;;;5065268;28;20424;-89
2022/08/10 12:39:17;;;;;;;3.05;2.15;;;;;;;;;;5044853;28;20037;-86
2022/08/10 12:42:09;;;;;;;9.40;2.00;;;;;;;;;;5048637;28;20029;-83
2022/08/10 12:44:41;;;;;;;4.65;2.30;;;;;;;;;;5050183;28;20028;-83
2022/08/10 12:47:31;;;;;;;6.28;2.00;;;;;;;;;;5065520;28;20162;-82
2022/08/10 12:50:02;;;;;;;8.00;2.00;;;;;;;;;;5053977;28;20489;-79
2022/08/10 12:52:30;;;;;;;11.98;2.00;;;;;;;;;;5068390;28;20036;-81
2022/08/10 12:54:58;;;;;;;5.32;1.90;;;;;;;;;;5063335;28;20021;-85
2022/08/10 12:57:25;;;;;;;11.15;2.40;;;;;;;;;;5077483;28;20095;-69
2022/08/10 12:59:54;;;;;;;3.55;2.28;;;;;;;;;;5072412;28;20457;-71
2022/08/10 13:02:27;;;;;;;5.95;2.17;;;;;;;;;;5065394;28;20025;-76
2022/08/10 13:04:55;;;;;;;4.05;2.17;;;;;;;;;;5070471;28;20017;-69
2022/08/10 13:07:24;;;;;;;9.07;2.08;;;;;;;;;;5068061;28;20032;-74
2022/08/10 13:09:51;;;;;;;4.60;2.28;;;;;;;;;;5061544;28;20064;-78
2022/08/10 13:12:18;;;;;;;7.13;2.75;;;;;;;;;;5065044;28;20111;-74
2022/08/10 13:14:49;;;;;;;4.30;2.45;;;;;;;;;;5073680;28;20028;-75
2022/08/10 13:17:20;;;;;;;7.32;2.20;;;;;;;;;;5056018;28;20489;-74
2022/08/10 13:19:47;;;;;;;5.53;2.00;;;;;;;;;;5069943;28;20470;-75
2022/08/10 13:22:15;;;;;;;10.18;1.92;;;;;;;;;;5069949;28;20032;-71
2022/08/10 13:24:44;;;;;;;3.97;2.00;;;;;;;;;;5067592;28;20031;-78
2022/08/10 13:27:13;;;;;;;5.57;2.17;;;;;;;;;;5057983;28;20017;-75
2022/08/10 13:29:50;;;;;;;3.60;2.10;;;;;;;;;;5064596;28;20514;-67
2022/08/10 13:32:21;;;;;;;8.10;1.98;;;;;;;;;;5071345;28;20068;-67
2022/08/10 13:34:49;;;;;;;3.67;2.10;;;;;;;;;;5062986;28;20036;-79
2022/08/10 13:37:18;;;;;;;4.63;2.00;;;;;;;;;;5065396;28;20051;-72
2022/08/10 13:39:49;;;;;;;3.65;2.05;;;;;;;;;;5070462;28;20532;-80
2022/08/10 13:42:17;;;;;;;9.10;2.85;;;;;;;;;;5071215;28;20029;-74
2022/08/10 13:44:49;;;;;;;2.95;2.05;;;;;;;;;;5068144;28;20028;-79
2022/08/10 13:47:16;;;;;;;6.30;2.40;;;;;;;;;;5072917;28;20082;-80
2022/08/10 13:49:50;;;;;;;2.78;2.10;;;;;;;;;;5056815;28;20099;-72
2022/08/10 13:52:24;;;;;;;4.20;2.08;;;;;;;;;;5060611;28;20044;-70
2022/08/10 13:54:52;;;;;;;4.45;2.00;;;;;;;;;;5061743;28;20381;-70
2022/08/10 13:57:24;;;;;;;5.80;2.08;;;;;;;;;;5060962;28;20053;-70
2022/08/10 13:59:52;;;;;;;5.65;2.40;;;;;;;;;;5054617;28;20066;-70
2022/08/10 14:02:36;;;;;;;6.57;2.90;;;;;;;;;;5059432;28;20016;-69
2022/08/10 14:05:04;;;;;;;3.45;1.90;;;;;;;;;;5072169;28;20398;-70
2022/08/10 14:07:31;;;;;;;5.70;2.20;;;;;;;;;;5070733;28;20035;-83
2022/08/10 14:10:16;;;;;;;4.90;2.10;;;;;;;;;;5068310;28;20049;-70
2022/08/10 14:12:44;;;;;;;3.00;1.98;;;;;;;;;;5070702;28;20044;-90
2022/08/10 14:15:13;;;;;;;12.77;9.00;;;;;;;;;;5069222;28;20028;-85
2022/08/10 14:17:40;;;;;;;22.35;10.02;;;;;;;;;;5058674;28;20032;-83
2022/08/10 14:20:09;;;;;;;10.30;6.90;;;;;;;;;;5074428;28;20021;-84
2022/08/10 14:22:35;;;;;;;13.20;9.10;;;;;;;;;;5070130;28;20056;-81
2022/08/10 14:25:08;;;;;;;9.18;3.28;;;;;;;;;;5075966;28;20059;-82
2022/08/10 14:27:35;;;;;;;7.25;3.42;;;;;;;;;;5067755;28;20025;-81
2022/08/10 14:30:02;;;;;;;6.70;3.20;;;;;;;;;;5066799;28;20017;-85
2022/08/10 14:32:29;;;;;;;5.07;2.45;;;;;;;;;;5067620;28;20513;-79
2022/08/10 14:34:57;;;;;;;7.15;2.10;;;;;;;;;;5065177;28;20029;-79
2022/08/10 14:37:30;;;;;;;7.00;2.38;;;;;;;;;;5064556;28;20027;-79
2022/08/10 14:39:56;;;;;;;;;;;;;;;;;;5061484;28;20027;-82
2022/08/10 14:42:27;;;;;;;6.82;2.17;;;;;;;;;;5070126;28;19991;-71
2022/08/10 14:44:54;;;;;;;4.85;2.40;;;;;;;;;;5074065;28;20028;-73
2022/08/10 14:47:23;;;;;;;5.95;2.30;;;;;;;;;;5076817;28;20024;-74
2022/08/10 14:49:50;;;;;;;6.68;2.30;;;;;;;;;;5078627;28;20033;-70
2022/08/10 14:52:17;;;;;;;5.22;2.13;;;;;;;;;;5080749;28;20040;-72
2022/08/10 14:54:43;;;;;;;15.57;2.58;;;;;;;;;;5081059;28;20025;-71
2022/08/10 14:57:11;;;;;;;7.40;2.40;;;;;;;;;;5080201;28;20029;-71
2022/08/10 14:59:37;;;;;;;6.10;2.53;;;;;;;;;;5074272;28;20094;-72
2022/08/10 15:02:05;;;;;;;6.15;2.40;;;;;;;;;;5065587;28;20024;-71
2022/08/10 15:04:32;;;;;;;3.80;1.92;;;;;;;;;;5080701;28;20028;-71
2022/08/10 15:07:17;;;;;;;6.00;2.97;;;;;;;;;;5084899;28;20035;-71
2022/08/10 15:09:44;;;;;;;3.72;2.28;;;;;;;;;;5072625;28;20136;-70